Impacts TAF Board INFO
FOR SITUATIONAL AWARENESS. NOT TO BE USED FOR FLIGHT PLANNING PURPOSES.
IDs:

KJFK - New York/Kennedy Int, NY, US

Issued at 0837 UTC 11 Dec 2017
Updated at 1105 UTC 11 Dec 2017
Potential Impact None Slight Moderate High
Time1051Z 11/12Z 11/13Z 11/14Z 11/15Z 11/16Z 11/17Z 11/18Z 11/19Z 11/20Z 11/21Z 11/22Z 11/23Z 12/00Z>>
Type OBS PRVL PRVL PRVL PRVL PRVL PRVL PRVL PRVL PRVL PRVL PRVL PRVL PRVL
VIS 9 >6 >6 >6 >6 >6 >6 >6 >6 >6 >6 >6 >6 >6
CIG 46 40 40 -- -- -- -- -- -- -- -- 250 250 250
Cover OVC OVC OVC SCT SCT SCT SCT SCT SCT SCT SCT BKN BKN BKN
FltCat VFR VFR VFR VFR VFR VFR VFR VFR VFR VFR VFR VFR VFR VFR
WX -SN -- -- -- -- -- -- -- -- -- -- -- -- --
WDir 250 250 250 270 270 270 270 270 270 270 270 250 250 250
WSpd 13 11 11 12 12 12 12 12 12 12 12 8 8 8
WGst -- -- -- 19 19 19 19 19 19 19 19 -- -- --

Raw TAF
KJFK 110837Z 1109/1212 24013KT P6SM SCT030 OVC040
  TEMPO 1109/1112 5SM -SHSN OVC030
  FM111200 25011KT P6SM OVC040
  FM111400 27012G19KT P6SM SCT040 SCT250
  FM112200 25008KT P6SM BKN250
  FM120300 20005KT P6SM OVC250
  FM120800 17007KT P6SM -RASN SCT025 OVC100


Raw METAR
KJFK 111051Z 25013KT 9SM -SN OVC046 01/M02 A3004 RMK AO2 SNB36 SLP170 P0000 T00061022
KJFK 110951Z 25021G28KT 10SM OVC041 01/M03 A3002 RMK AO2 PK WND 25028/0945 SLP166 T00111033
KJFK 110851Z 25018KT 10SM OVC080 02/M04 A3001 RMK AO2 SLP160 T00221039 55007

METAR Board
Radar Display
Forecast Discussion

FOR SITUATIONAL AWARENESS. NOT TO BE USED FOR FLIGHT PLANNING PURPOSES.